createdAt,value
2019-06-10T00:00:41.825Z,47.04
2019-06-10T00:03:11.563Z,47.18
2019-06-10T00:05:41.446Z,46.92
2019-06-10T00:08:12.052Z,47.11
2019-06-10T00:10:42.180Z,47.34
2019-06-10T00:13:11.778Z,47.16
2019-06-10T00:15:41.047Z,47.59
2019-06-10T00:18:33.421Z,48.44
2019-06-10T00:20:41.118Z,48.31
2019-06-10T00:23:12.118Z,47.71
2019-06-10T00:25:41.341Z,46.86
2019-06-10T00:28:12.107Z,46.82
2019-06-10T00:30:41.301Z,47.19
2019-06-10T00:33:12.464Z,47.42
2019-06-10T00:35:41.298Z,47.31
2019-06-10T00:38:14.366Z,47.07
2019-06-10T00:40:41.901Z,47.37
2019-06-10T00:43:13.042Z,48.34
2019-06-10T00:45:41.185Z,48.72
2019-06-10T00:48:20.173Z,49.14
2019-06-10T00:50:41.405Z,48.75
2019-06-10T00:53:14.183Z,48.45
2019-06-10T00:55:41.464Z,47.87
2019-06-10T00:58:13.627Z,47.87
2019-06-10T01:00:41.520Z,47.71
2019-06-10T01:03:13.516Z,47.49
2019-06-10T01:05:42.237Z,47.67
2019-06-10T01:08:15.577Z,48.07
2019-06-10T01:10:44.153Z,48.00
2019-06-10T01:13:15.070Z,48.06
2019-06-10T01:15:43.044Z,48.34
2019-06-10T01:18:30.575Z,48.22
2019-06-10T01:20:41.685Z,47.87
2019-06-10T01:23:13.890Z,47.60
2019-06-10T01:25:42.173Z,47.35
2019-06-10T01:28:13.302Z,48.43
2019-06-10T01:30:41.358Z,48.44
2019-06-10T01:33:11.401Z,47.76
2019-06-10T01:35:41.562Z,47.53
2019-06-10T01:38:12.868Z,47.26
2019-06-10T01:40:42.315Z,47.36
2019-06-10T01:43:13.309Z,47.30
2019-06-10T01:45:42.191Z,47.06
2019-06-10T01:48:12.099Z,47.00
2019-06-10T01:50:40.963Z,47.10
2019-06-10T01:53:13.560Z,47.08
2019-06-10T01:55:41.751Z,47.29
2019-06-10T01:58:12.431Z,46.91
2019-06-10T02:00:47.282Z,46.85
2019-06-10T02:03:18.125Z,46.96
2019-06-10T02:05:45.916Z,47.13
2019-06-10T02:08:16.192Z,46.95
2019-06-10T02:10:44.536Z,46.96
2019-06-10T02:13:31.977Z,47.16
2019-06-10T02:16:03.096Z,47.35
2019-06-10T02:18:32.219Z,47.07
2019-06-10T02:21:01.365Z,46.64
2019-06-10T02:23:31.560Z,46.86
2019-06-10T02:26:01.526Z,47.29
2019-06-10T02:28:31.644Z,47.69
2019-06-10T02:31:03.250Z,48.03
2019-06-10T02:33:36.101Z,48.12
2019-06-10T02:36:03.998Z,47.80
2019-06-10T02:38:35.653Z,48.23
2019-06-10T02:41:04.508Z,48.34
2019-06-10T02:43:36.213Z,48.46
2019-06-10T02:46:04.443Z,49.70
2019-06-10T02:48:34.921Z,52.39
2019-06-10T02:51:05.543Z,57.76
2019-06-10T02:53:36.374Z,58.77
2019-06-10T02:56:06.573Z,62.12
2019-06-10T02:58:38.840Z,59.97
2019-06-10T03:01:05.588Z,63.95
2019-06-10T03:03:42.597Z,67.04
2019-06-10T03:06:07.098Z,75.06
2019-06-10T03:08:36.516Z,74.14
2019-06-10T03:11:05.390Z,76.04
2019-06-10T03:13:34.000Z,76.39
2019-06-10T03:16:20.014Z,71.31
2019-06-10T03:18:49.499Z,70.58
2019-06-10T03:21:18.036Z,70.97
2019-06-10T03:23:46.437Z,71.68
2019-06-10T03:26:15.215Z,70.68
2019-06-10T03:28:43.720Z,72.32
2019-06-10T03:31:15.565Z,71.93
2019-06-10T03:33:47.407Z,71.82
2019-06-10T03:36:12.662Z,72.40
2019-06-10T03:38:43.192Z,70.94
2019-06-10T03:41:12.505Z,73.09
2019-06-10T03:43:42.969Z,75.34
2019-06-10T03:46:13.509Z,76.69
2019-06-10T03:48:43.322Z,74.57
2019-06-10T03:51:12.582Z,77.10
2019-06-10T03:53:42.666Z,75.61
2019-06-10T03:56:12.778Z,73.24
2019-06-10T03:58:43.136Z,77.66
2019-06-10T04:01:12.400Z,80.94
2019-06-10T04:03:42.770Z,81.10
2019-06-10T04:06:12.906Z,80.18
2019-06-10T04:08:43.337Z,82.60
2019-06-10T04:11:12.270Z,83.21
2019-06-10T04:13:43.120Z,88.57
2019-06-10T04:16:13.107Z,84.78
2019-06-10T04:18:43.061Z,86.25
2019-06-10T04:21:12.816Z,84.10
2019-06-10T04:23:42.439Z,86.14
2019-06-10T04:26:12.844Z,85.68
2019-06-10T04:28:42.922Z,87.28
2019-06-10T04:31:13.146Z,88.33
2019-06-10T04:33:42.381Z,88.33
2019-06-10T04:36:13.255Z,89.83
2019-06-10T04:38:43.211Z,89.45
2019-06-10T04:41:12.591Z,87.76
2019-06-10T04:43:43.161Z,89.29
2019-06-10T04:46:12.638Z,88.55
2019-06-10T04:48:42.722Z,89.34
2019-06-10T04:51:13.071Z,89.67
2019-06-10T04:53:43.533Z,88.72
2019-06-10T04:56:12.334Z,89.76
2019-06-10T04:58:43.291Z,90.28
2019-06-10T05:01:12.245Z,91.04
2019-06-10T05:03:43.177Z,90.75
2019-06-10T05:06:12.317Z,92.34
2019-06-10T05:08:42.534Z,93.45
2019-06-10T05:11:12.846Z,89.30
2019-06-10T05:13:43.014Z,89.93
2019-06-10T05:16:12.488Z,88.78
2019-06-10T05:18:42.443Z,88.42
2019-06-10T05:21:13.073Z,88.32
2019-06-10T05:23:43.062Z,88.00
2019-06-10T05:26:13.388Z,87.68
2019-06-10T05:28:43.222Z,88.79
2019-06-10T05:31:12.949Z,87.00
2019-06-10T05:33:42.564Z,87.96
2019-06-10T05:36:13.131Z,87.34
2019-06-10T05:38:43.451Z,86.54
2019-06-10T05:41:13.361Z,86.32
2019-06-10T05:43:42.971Z,85.39
2019-06-10T05:46:13.390Z,85.00
2019-06-10T05:48:43.748Z,85.35
2019-06-10T05:51:12.544Z,85.98
2019-06-10T05:53:42.255Z,85.82
2019-06-10T05:56:12.862Z,84.35
2019-06-10T05:58:43.704Z,84.21
2019-06-10T06:01:13.241Z,82.76
2019-06-10T06:03:44.007Z,83.85
2019-06-10T06:06:12.632Z,85.12
2019-06-10T06:08:42.894Z,86.00
2019-06-10T06:11:12.667Z,84.59
2019-06-10T06:13:43.203Z,86.17
2019-06-10T06:16:12.654Z,82.00
2019-06-10T06:18:42.226Z,84.30
2019-06-10T06:21:22.450Z,82.24
2019-06-10T06:23:43.458Z,80.35
2019-06-10T06:26:16.503Z,82.17
2019-06-10T06:28:43.144Z,78.89
2019-06-10T06:31:12.763Z,79.13
2019-06-10T06:33:43.292Z,77.63
2019-06-10T06:36:12.586Z,75.84
2019-06-10T06:38:43.583Z,76.34
2019-06-10T06:41:13.762Z,75.08
2019-06-10T06:43:45.021Z,75.22
2019-06-10T06:46:12.901Z,74.99
2019-06-10T06:48:43.911Z,73.46
2019-06-10T06:51:13.008Z,74.57
2019-06-10T06:53:48.398Z,74.66
2019-06-10T06:56:12.706Z,74.36
2019-06-10T06:58:43.423Z,76.23
2019-06-10T07:01:14.423Z,74.97
2019-06-10T07:03:45.029Z,75.44
2019-06-10T07:06:13.881Z,76.09
2019-06-10T07:08:57.760Z,74.83
2019-06-10T07:11:17.334Z,73.87
2019-06-10T07:13:46.174Z,71.98
2019-06-10T07:16:14.649Z,71.39
2019-06-10T07:18:49.571Z,70.31
2019-06-10T07:21:13.391Z,70.35
2019-06-10T07:23:46.520Z,69.95
2019-06-10T07:26:12.731Z,69.57
2019-06-10T07:28:46.606Z,68.25
2019-06-10T07:31:20.917Z,68.81
2019-06-10T07:33:45.803Z,67.24
2019-06-10T07:36:13.117Z,68.22
2019-06-10T07:38:47.036Z,68.17
2019-06-10T07:41:12.709Z,67.80
2019-06-10T07:43:46.956Z,67.28
2019-06-10T07:46:13.365Z,66.98
2019-06-10T07:48:46.193Z,67.33
2019-06-10T07:51:13.187Z,65.42
2019-06-10T07:53:45.091Z,67.05
2019-06-10T07:56:12.859Z,67.33
2019-06-10T07:58:44.502Z,66.83
2019-06-10T08:01:13.242Z,64.95
2019-06-10T08:03:46.051Z,64.48
2019-06-10T08:06:12.610Z,63.82
2019-06-10T08:08:44.780Z,62.76
2019-06-10T08:11:13.614Z,62.62
2019-06-10T08:13:44.667Z,63.18
2019-06-10T08:16:13.042Z,62.05
2019-06-10T08:19:12.310Z,60.73
2019-06-10T08:21:12.426Z,60.80
2019-06-10T08:23:43.593Z,62.90
2019-06-10T08:26:12.767Z,61.85
2019-06-10T08:28:42.512Z,61.33
2019-06-10T08:31:12.378Z,61.55
2019-06-10T08:33:44.375Z,61.63
2019-06-10T08:36:13.306Z,61.14
2019-06-10T08:38:44.985Z,59.99
2019-06-10T08:41:12.243Z,61.10
2019-06-10T08:43:43.788Z,59.69
2019-06-10T08:46:13.218Z,59.57
2019-06-10T08:48:43.838Z,58.19
2019-06-10T08:51:12.502Z,57.51
2019-06-10T08:53:44.117Z,56.91
2019-06-10T08:56:13.099Z,56.67
2019-06-10T08:58:45.803Z,57.05
2019-06-10T09:01:13.229Z,56.09
2019-06-10T09:03:46.320Z,56.71
2019-06-10T09:06:13.338Z,57.08
2019-06-10T09:08:45.782Z,58.60
2019-06-10T09:11:12.928Z,57.17
2019-06-10T09:13:46.340Z,56.45
2019-06-10T09:16:18.907Z,54.94
2019-06-10T09:18:46.318Z,54.55
2019-06-10T09:21:13.839Z,54.71
2019-06-10T09:23:46.436Z,53.68
2019-06-10T09:26:12.918Z,53.78
2019-06-10T09:28:45.036Z,53.32
2019-06-10T09:31:14.077Z,53.48
2019-06-10T09:33:47.940Z,53.36
2019-06-10T09:36:12.502Z,53.07
2019-06-10T09:38:45.390Z,53.09
2019-06-10T09:41:14.046Z,53.87
2019-06-10T09:43:45.360Z,54.69
2019-06-10T09:46:12.637Z,55.17
2019-06-10T09:48:47.061Z,55.98
2019-06-10T09:51:12.750Z,55.29
2019-06-10T09:53:46.457Z,54.99
2019-06-10T09:56:12.504Z,55.20
2019-06-10T09:58:44.684Z,56.05
2019-06-10T10:01:13.246Z,55.91
2019-06-10T10:03:45.376Z,55.54
2019-06-10T10:06:15.699Z,56.12
2019-06-10T10:08:45.976Z,56.12
2019-06-10T10:11:13.002Z,56.50
2019-06-10T10:13:44.987Z,55.62
2019-06-10T10:16:13.175Z,55.44
2019-06-10T10:18:45.844Z,55.16
2019-06-10T10:21:13.090Z,56.15
2019-06-10T10:23:51.101Z,55.63
2019-06-10T10:26:13.143Z,56.26
2019-06-10T10:28:42.852Z,55.75
2019-06-10T10:31:13.121Z,53.88
2019-06-10T10:33:42.608Z,53.13
2019-06-10T10:36:13.267Z,53.16
2019-06-10T10:38:42.644Z,53.26
2019-06-10T10:41:13.319Z,53.03
2019-06-10T10:43:44.825Z,52.78
2019-06-10T10:46:14.053Z,53.91
2019-06-10T10:48:42.999Z,53.67
2019-06-10T10:51:13.068Z,53.63
2019-06-10T10:53:46.821Z,51.99
2019-06-10T10:56:12.873Z,52.05
2019-06-10T10:58:43.604Z,51.25
2019-06-10T11:01:14.977Z,51.80
2019-06-10T11:03:43.964Z,51.59
2019-06-10T11:06:13.053Z,52.16
2019-06-10T11:08:44.227Z,51.49
2019-06-10T11:11:13.802Z,52.19
2019-06-10T11:13:45.386Z,51.55
2019-06-10T11:16:14.301Z,51.76
2019-06-10T11:18:42.790Z,51.06
2019-06-10T11:21:13.238Z,51.70
2019-06-10T11:23:43.650Z,51.30
2019-06-10T11:26:12.480Z,50.64
2019-06-10T11:28:42.315Z,50.70
2019-06-10T11:31:13.771Z,51.48
2019-06-10T11:33:43.544Z,50.74
2019-06-10T11:36:13.432Z,50.37
2019-06-10T11:38:42.363Z,50.99
2019-06-10T11:41:13.644Z,51.01
2019-06-10T11:43:42.973Z,51.56
2019-06-10T11:46:13.105Z,50.79
2019-06-10T11:48:43.581Z,50.10
2019-06-10T11:51:12.981Z,50.46
2019-06-10T11:53:44.046Z,50.76
2019-06-10T11:56:13.042Z,50.40
2019-06-10T11:58:42.675Z,51.08
2019-06-10T12:01:13.094Z,51.01
2019-06-10T12:03:43.032Z,51.17
2019-06-10T12:06:13.554Z,51.75
2019-06-10T12:08:43.660Z,51.49
2019-06-10T12:11:12.845Z,51.91
2019-06-10T12:13:42.728Z,50.29
2019-06-10T12:17:05.766Z,50.71
2019-06-10T12:18:42.618Z,51.08
2019-06-10T12:21:13.275Z,50.20
2019-06-10T12:23:43.617Z,49.92
2019-06-10T12:26:11.651Z,49.57
2019-06-10T12:28:42.900Z,49.65
2019-06-10T12:31:13.030Z,50.83
2019-06-10T12:33:40.531Z,50.05
2019-06-10T12:36:09.189Z,49.04
2019-06-10T12:38:37.639Z,50.27
2019-06-10T12:41:08.922Z,49.43
2019-06-10T12:43:36.273Z,49.93
2019-06-10T12:46:04.908Z,50.36
2019-06-10T12:48:34.414Z,49.93
2019-06-10T12:51:07.927Z,51.01
2019-06-10T12:53:33.677Z,50.07
2019-06-10T12:56:08.093Z,49.60
2019-06-10T12:58:33.366Z,50.22
2019-06-10T13:01:05.580Z,48.89
2019-06-10T13:03:33.653Z,49.03
2019-06-10T13:06:07.213Z,49.32
2019-06-10T13:08:36.058Z,48.28
2019-06-10T13:11:04.585Z,48.71
2019-06-10T13:13:33.125Z,48.69
2019-06-10T13:16:06.650Z,48.82
2019-06-10T13:18:31.706Z,48.82
2019-06-10T13:21:06.365Z,49.23
2019-06-10T13:23:34.379Z,48.59
2019-06-10T13:26:04.334Z,48.17
2019-06-10T13:28:32.549Z,47.68
2019-06-10T13:31:03.786Z,47.34
2019-06-10T13:33:33.127Z,46.95
2019-06-10T13:36:01.314Z,46.92
2019-06-10T13:38:29.792Z,46.15
2019-06-10T13:40:59.474Z,46.47
2019-06-10T13:43:28.007Z,46.60
2019-06-10T13:45:58.048Z,45.78
2019-06-10T13:48:27.197Z,46.25
2019-06-10T13:50:55.764Z,45.85
2019-06-10T13:53:24.204Z,46.06
2019-06-10T13:56:14.444Z,46.36
2019-06-10T13:58:23.194Z,47.25
2019-06-10T14:00:53.609Z,46.57
2019-06-10T14:03:22.933Z,46.60
2019-06-10T14:05:57.651Z,47.95
2019-06-10T14:08:23.338Z,48.30
2019-06-10T14:10:54.068Z,48.15
2019-06-10T14:13:23.588Z,47.36
2019-06-10T14:15:54.093Z,46.42
2019-06-10T14:18:23.313Z,46.81
2019-06-10T14:20:53.152Z,47.16
2019-06-10T14:23:22.250Z,47.40
2019-06-10T14:25:52.656Z,46.78
2019-06-10T14:28:38.029Z,47.49
2019-06-10T14:30:53.710Z,48.38
2019-06-10T14:33:23.345Z,47.59
2019-06-10T14:35:53.366Z,47.20
2019-06-10T14:38:22.230Z,47.45
2019-06-10T14:40:52.569Z,47.09
2019-06-10T14:43:23.123Z,46.49
2019-06-10T14:45:53.509Z,46.66
2019-06-10T14:48:23.516Z,46.43
2019-06-10T14:50:52.288Z,47.38
2019-06-10T14:53:22.948Z,47.75
2019-06-10T14:55:53.386Z,48.34
2019-06-10T14:58:23.117Z,48.80
2019-06-10T15:00:54.411Z,48.87
2019-06-10T15:03:21.479Z,48.02
2019-06-10T15:05:52.637Z,48.15
2019-06-10T15:08:22.801Z,49.54
2019-06-10T15:10:52.545Z,47.46
2019-06-10T15:13:23.162Z,47.41
2019-06-10T15:15:53.089Z,47.41
2019-06-10T15:18:23.724Z,47.94
2019-06-10T15:20:53.476Z,47.26
2019-06-10T15:23:23.444Z,47.26
2019-06-10T15:25:55.894Z,47.81
2019-06-10T15:28:23.549Z,48.06
2019-06-10T15:30:52.532Z,48.37
2019-06-10T15:33:23.660Z,47.73
2019-06-10T15:35:53.238Z,47.20
2019-06-10T15:38:23.300Z,48.71
2019-06-10T15:40:53.099Z,48.74
2019-06-10T15:43:23.376Z,48.84
2019-06-10T15:45:52.816Z,47.51
2019-06-10T15:48:24.982Z,48.72
2019-06-10T15:50:51.969Z,48.39
2019-06-10T15:53:25.315Z,48.39
2019-06-10T15:56:10.253Z,48.57
2019-06-10T15:58:23.471Z,48.19
2019-06-10T16:00:53.353Z,46.46
2019-06-10T16:03:25.196Z,45.64
2019-06-10T16:05:52.791Z,47.21
2019-06-10T16:08:22.496Z,46.16
2019-06-10T16:10:52.522Z,46.28
2019-06-10T16:13:25.381Z,45.82
2019-06-10T16:15:53.311Z,46.17
2019-06-10T16:18:25.854Z,47.58
2019-06-10T16:20:53.011Z,47.81
2019-06-10T16:23:24.485Z,47.46
2019-06-10T16:25:53.542Z,45.95
2019-06-10T16:28:23.425Z,44.69
2019-06-10T16:30:53.754Z,43.57
2019-06-10T16:33:25.820Z,43.16
2019-06-10T16:35:52.599Z,43.28
2019-06-10T16:38:23.874Z,44.95
2019-06-10T16:40:53.640Z,43.84
2019-06-10T16:43:24.141Z,45.82
2019-06-10T16:45:52.562Z,44.65
2019-06-10T16:48:21.529Z,44.42
2019-06-10T16:50:53.956Z,45.56
2019-06-10T16:53:25.833Z,45.43
2019-06-10T16:55:52.711Z,45.66
2019-06-10T16:58:23.606Z,45.63
2019-06-10T17:00:50.993Z,47.84
2019-06-10T17:03:21.105Z,47.86
2019-06-10T17:05:49.613Z,47.40
2019-06-10T17:08:18.044Z,49.79
2019-06-10T17:10:46.490Z,51.53
2019-06-10T17:13:16.614Z,51.75
2019-06-10T17:15:45.045Z,53.38
2019-06-10T17:18:13.500Z,53.33
2019-06-10T17:20:42.949Z,53.72
2019-06-10T17:23:26.357Z,54.30
2019-06-10T17:25:54.995Z,54.89
2019-06-10T17:28:28.482Z,55.05
2019-06-10T17:30:56.085Z,55.16
2019-06-10T17:33:26.197Z,55.00
2019-06-10T17:35:54.772Z,55.14
2019-06-10T17:38:24.626Z,55.36
2019-06-10T17:40:53.224Z,56.21
2019-06-10T17:43:21.650Z,56.72
2019-06-10T17:45:52.589Z,57.21
2019-06-10T17:48:22.770Z,56.70
2019-06-10T17:50:52.477Z,57.11
2019-06-10T17:53:22.087Z,57.55
2019-06-10T17:55:50.877Z,57.23
2019-06-10T17:58:31.912Z,57.06
2019-06-10T18:00:49.563Z,57.78
2019-06-10T18:03:18.040Z,58.36
2019-06-10T18:05:46.519Z,58.55
2019-06-10T18:08:14.992Z,59.14
2019-06-10T18:10:43.598Z,60.18
2019-06-10T18:13:16.284Z,60.16
2019-06-10T18:15:42.505Z,60.54
2019-06-10T18:18:12.957Z,60.51
2019-06-10T18:20:43.371Z,60.79
2019-06-10T18:23:13.449Z,61.10
2019-06-10T18:25:43.253Z,61.49
2019-06-10T18:28:12.192Z,61.63
2019-06-10T18:30:43.260Z,61.46
2019-06-10T18:33:10.914Z,61.65
2019-06-10T18:35:39.356Z,62.18
2019-06-10T18:38:07.787Z,62.42
2019-06-10T18:40:36.271Z,62.81
2019-06-10T18:43:05.267Z,63.41
2019-06-10T18:45:36.877Z,63.83
2019-06-10T18:48:04.159Z,64.17
2019-06-10T18:50:34.737Z,64.49
2019-06-10T18:53:04.236Z,64.80
2019-06-10T18:55:35.929Z,65.15
2019-06-10T18:58:03.235Z,65.63
2019-06-10T19:00:51.849Z,65.77
2019-06-10T19:03:10.328Z,65.73
2019-06-10T19:05:33.570Z,65.62
2019-06-10T19:08:02.659Z,66.00
2019-06-10T19:10:33.881Z,66.54
2019-06-10T19:13:02.516Z,67.01
2019-06-10T19:15:31.806Z,67.22
2019-06-10T19:18:02.972Z,67.10
2019-06-10T19:20:33.605Z,67.60
2019-06-10T19:23:02.423Z,67.37
2019-06-10T19:25:33.702Z,67.62
2019-06-10T19:28:01.217Z,68.05
2019-06-10T19:30:33.504Z,68.26
2019-06-10T19:33:02.205Z,69.61
2019-06-10T19:35:33.593Z,69.05
2019-06-10T19:38:02.234Z,68.65
2019-06-10T19:40:32.563Z,68.44
2019-06-10T19:43:02.812Z,68.77
2019-06-10T19:45:32.098Z,69.58
2019-06-10T19:48:03.121Z,69.11
2019-06-10T19:50:34.056Z,69.60
2019-06-10T19:53:02.683Z,69.90
2019-06-10T19:55:32.467Z,70.26
2019-06-10T19:58:03.733Z,70.74
2019-06-10T20:00:34.063Z,70.33
2019-06-10T20:03:02.913Z,70.58
2019-06-10T20:05:32.650Z,70.64
2019-06-10T20:08:03.054Z,70.53
2019-06-10T20:10:32.377Z,70.46
2019-06-10T20:13:01.160Z,70.22
2019-06-10T20:15:29.605Z,71.08
2019-06-10T20:17:58.077Z,71.22
2019-06-10T20:20:26.572Z,70.53
2019-06-10T20:22:57.367Z,71.04
2019-06-10T20:25:25.463Z,71.27
2019-06-10T20:27:53.949Z,71.36
2019-06-10T20:30:28.415Z,71.60
2019-06-10T20:32:56.079Z,72.09
2019-06-10T20:35:23.411Z,71.92
2019-06-10T20:37:53.926Z,73.49
2019-06-10T20:40:23.701Z,73.90
2019-06-10T20:42:52.173Z,74.29
2019-06-10T20:45:22.948Z,73.94
2019-06-10T20:47:53.415Z,74.76
2019-06-10T20:50:21.638Z,75.15
2019-06-10T20:52:52.256Z,74.81
2019-06-10T20:55:23.169Z,74.88
2019-06-10T20:58:02.322Z,74.99
2019-06-10T21:00:40.545Z,75.36
2019-06-10T21:03:07.851Z,74.88
2019-06-10T21:05:36.378Z,75.19
2019-06-10T21:08:05.705Z,75.33
2019-06-10T21:10:37.924Z,75.73
2019-06-10T21:13:07.035Z,76.31
2019-06-10T21:15:36.856Z,76.55
2019-06-10T21:18:06.217Z,77.13
2019-06-10T21:20:34.691Z,77.98
2019-06-10T21:23:03.482Z,78.31
2019-06-10T21:25:32.622Z,79.07
2019-06-10T21:28:03.189Z,79.44
2019-06-10T21:30:38.441Z,79.67
2019-06-10T21:33:03.438Z,80.33
2019-06-10T21:35:33.213Z,80.52
2019-06-10T21:38:01.676Z,80.52
2019-06-10T21:40:30.143Z,80.63
2019-06-10T21:42:58.583Z,81.38
2019-06-10T21:45:27.094Z,81.19
2019-06-10T21:47:55.552Z,81.34
2019-06-10T21:50:23.989Z,81.47
2019-06-10T21:52:53.507Z,81.41
2019-06-10T21:55:22.633Z,81.56
2019-06-10T21:57:53.644Z,82.23
2019-06-10T22:00:23.435Z,82.77
2019-06-10T22:02:56.333Z,82.83
2019-06-10T22:05:22.448Z,83.09
2019-06-10T22:07:55.107Z,83.92
2019-06-10T22:10:22.889Z,83.51
2019-06-10T22:12:53.118Z,83.96
2019-06-10T22:15:22.591Z,85.72
2019-06-10T22:17:53.363Z,85.81
2019-06-10T22:20:22.693Z,86.82
2019-06-10T22:22:53.369Z,87.66
2019-06-10T22:25:22.364Z,87.70
2019-06-10T22:27:52.030Z,87.51
2019-06-10T22:30:22.820Z,88.79
2019-06-10T22:32:54.930Z,88.42
2019-06-10T22:35:23.045Z,90.29
2019-06-10T22:37:52.574Z,90.64
2019-06-10T22:40:22.437Z,92.35
2019-06-10T22:42:53.631Z,92.15
2019-06-10T22:45:21.245Z,92.50
2019-06-10T22:47:50.354Z,92.61
2019-06-10T22:50:19.883Z,93.07
2019-06-10T22:52:49.215Z,91.77
2019-06-10T22:55:17.839Z,92.03
2019-06-10T22:57:46.297Z,90.80
2019-06-10T23:00:15.104Z,91.82
2019-06-10T23:02:43.935Z,91.33
2019-06-10T23:05:13.512Z,92.00
2019-06-10T23:07:43.398Z,93.30
2019-06-10T23:10:12.387Z,93.88
2019-06-10T23:12:42.965Z,94.70
2019-06-10T23:15:13.013Z,95.83
2019-06-10T23:17:42.298Z,95.91
2019-06-10T23:20:12.428Z,97.07
2019-06-10T23:22:40.902Z,97.42
2019-06-10T23:25:12.562Z,96.99
2019-06-10T23:27:41.941Z,96.79
2019-06-10T23:30:12.091Z,97.71
2019-06-10T23:32:42.268Z,98.66
2019-06-10T23:35:12.303Z,99.47
2019-06-10T23:37:42.675Z,99.66
2019-06-10T23:40:12.723Z,100.00
2019-06-10T23:42:41.313Z,100.00
2019-06-10T23:45:09.926Z,100.00
2019-06-10T23:47:38.388Z,100.00
2019-06-10T23:50:07.011Z,100.00
2019-06-10T23:52:35.493Z,100.00
2019-06-10T23:55:05.387Z,100.00
2019-06-10T23:57:33.880Z,100.00
